Flight Track Log - Related Links

Times and Time Zones

All times are in EDT time to prevent confusion due to time zone crossing. See the JZA8106 flight status page for this flight to view local times or setup timezone preferences in your user account.

Time Position Orientation Groundspeed Altitude Reporting Facility
EDT Latitude Longitude Course Direction KTS MPH feet Rate Location/Type
Mon 09:01:18 PM 51.0833 -114.0333 197° South 80 92 3,600  Level Edmonton Center
Mon 09:02:18 PM 51.0500 -114.0500 197° South 160 184 5,200 1,950 Climbing Edmonton Center
Mon 09:03:18 PM 51.0000 -114.0500 180° South 200 230 7,500 2,150 Climbing Edmonton Center
Mon 09:04:18 PM 50.9333 -114.0333 171° South 240 276 9,500 2,150 Climbing Edmonton Center
Mon 09:05:18 PM 50.8500 -114.0167 173° South 290 334 11,800 1,900 Climbing Edmonton Center
Mon 09:06:18 PM 50.7667 -113.9667 159° South 340 391 13,300 1,500 Climbing Edmonton Center
Mon 09:07:18 PM 50.6500 -113.9167 165° South 390 449 14,800 1,900 Climbing Edmonton Center
Mon 09:08:18 PM 50.5500 -113.8667 162° South 400 460 17,100 2,050 Climbing Edmonton Center
Mon 09:09:18 PM 50.4333 -113.8500 175° South 400 460 18,900 1,800 Climbing Edmonton Center
Mon 09:10:18 PM 50.3167 -113.8000 165° South 410 472 20,700 1,650 Climbing Edmonton Center
Mon 09:11:18 PM 50.2167 -113.7500 162° South 420 483 22,200 1,400 Climbing Edmonton Center
Mon 09:12:18 PM 50.1000 -113.7000 165° South 440 506 23,500 1,300 Climbing Edmonton Center
Mon 09:13:18 PM 49.9833 -113.6000 151° Southeast 450 518 24,800 1,250 Climbing Edmonton Center
Mon 09:14:18 PM 49.9000 -113.4833 138° Southeast 460 529 26,000 1,450 Climbing Edmonton Center
Mon 09:15:18 PM 49.7833 -113.3167 137° Southeast 470 541 27,700 1,750 Climbing Edmonton Center
Mon 09:16:18 PM 49.7000 -113.2000 138° Southeast 460 529 29,500 1,650 Climbing Edmonton Center
Mon 09:17:18 PM 49.6000 -113.0500 136° Southeast 450 518 31,000 1,600 Climbing Edmonton Center
Mon 09:18:18 PM 49.5167 -112.9333 138° Southeast 450 518 32,700 1,500 Climbing Edmonton Center
Mon 09:19:18 PM 49.4000 -112.8167 147° Southeast 440 506 34,000 950 Climbing Edmonton Center
Mon 09:20:18 PM 49.3333 -112.7000 131° Southeast 450 518 34,600 700 Climbing Edmonton Center
Mon 09:21:18 PM 49.2333 -112.5833 143° Southeast 450 518 35,400 802 Climbing Edmonton Center
Mon 09:23:40 PM 49.0281 -112.2467 133° Southeast 456 525 37,300 768 Climbing Salt Lake Center
Mon 09:24:41 PM 48.9306 -112.1194 139° Southeast 461 531 38,000 585 Climbing Salt Lake Center
Mon 09:25:43 PM 48.8333 -111.9936 140° Southeast 461 531 38,500 488 Climbing Salt Lake Center
Mon 09:26:44 PM 48.7369 -111.8678 139° Southeast 460 529 39,000 244 Climbing Salt Lake Center
Mon 09:27:46 PM 48.6369 -111.7408 140° Southeast 467 537 39,000  Level Salt Lake Center
Mon 09:28:47 PM 48.5353 -111.6103 140° Southeast 476 548 39,000  Level Salt Lake Center
Mon 09:29:48 PM 48.4322 -111.4808 140° Southeast 482 555 39,000 -49 Level Salt Lake Center
Mon 09:30:50 PM 48.3306 -111.3508 140° Southeast 480 552 38,900  Descending Salt Lake Center
Mon 09:32:00 PM 48.2409 -111.1822 141° Southeast  Level FlightAware Approximate
Mon 09:32:53 PM 48.1067 -111.0697 141° Southeast 476 548 39,000  Level Salt Lake Center
Mon 09:33:54 PM 48.0047 -110.9436 140° Southeast 474 545 39,000  Level Salt Lake Center
Mon 09:34:56 PM 47.9036 -110.8186 140° Southeast 471 542 39,000  Level Salt Lake Center
Mon 09:35:57 PM 47.8014 -110.6931 140° Southeast 471 542 39,000  Level Salt Lake Center
Mon 09:36:58 PM 47.7000 -110.5692 141° Southeast 471 542 39,000  Level Salt Lake Center
Mon 09:38:00 PM 47.5997 -110.4447 140° Southeast 469 540 39,000  Level Salt Lake Center
Mon 09:39:01 PM 47.4981 -110.3231 141° Southeast 468 539 39,000  Level Salt Lake Center
Mon 09:40:03 PM 47.3975 -110.2031 141° Southeast 466 536 39,000  Level Salt Lake Center
Mon 09:41:04 PM 47.2969 -110.0833 141° Southeast 464 534 39,000  Level Salt Lake Center
Mon 09:42:06 PM 47.1997 -109.9608 139° Southeast 463 533 39,000  Level Salt Lake Center
Mon 09:43:07 PM 47.1000 -109.8431 141° Southeast 460 529 39,000  Level Salt Lake Center
Mon 09:44:09 PM 46.9794 -109.7022 141° Southeast 461 531 39,000  Level Salt Lake Center
Mon 09:45:10 PM 46.8797 -109.5844 141° Southeast 461 531 39,000  Level Salt Lake Center
Mon 09:46:12 PM 46.7803 -109.4669 141° Southeast 461 531 39,000  Level Salt Lake Center
Mon 09:47:13 PM 46.6772 -109.3500 142° Southeast 460 529 39,000  Level Salt Lake Center
Mon 09:48:15 PM 46.5806 -109.2386 142° Southeast 460 529 39,000  Level Salt Lake Center
Mon 09:49:16 PM 46.4681 -109.1106 142° Southeast 459 528 39,000  Level Salt Lake Center
Mon 09:50:17 PM 46.3717 -108.9994 141° Southeast 462 532 39,000  Level Salt Lake Center
Mon 09:51:19 PM 46.2594 -108.8725 142° Southeast 458 527 39,000  Level Salt Lake Center
Mon 09:52:20 PM 46.1628 -108.7633 142° Southeast 459 528 39,000  Level Salt Lake Center
Mon 09:53:22 PM 46.0661 -108.6547 142° Southeast 459 528 39,000  Level Salt Lake Center
Mon 09:54:23 PM 45.9531 -108.5283 142° Southeast 461 531 39,000  Level Salt Lake Center
Mon 09:55:25 PM 45.8564 -108.4203 142° Southeast 459 528 39,000  Level Salt Lake Center
Mon 09:56:26 PM 45.7436 -108.2964 143° Southeast 457 526 39,000  Level Salt Lake Center
Mon 09:57:28 PM 45.6467 -108.1886 142° Southeast 460 529 39,000  Level Salt Lake Center
Mon 09:58:29 PM 45.5500 -108.0833 143° Southeast 457 526 39,000  Level Salt Lake Center
Mon 09:59:31 PM 45.4367 -107.9592 142° Southeast 456 525 39,000  Level Salt Lake Center
Mon 10:00:32 PM 45.3411 -107.8533 142° Southeast 453 521 39,000  Level Salt Lake Center
Mon 10:01:33 PM 45.2272 -107.7303 143° Southeast 459 528 39,000  Level Salt Lake Center
Mon 10:02:35 PM 45.1306 -107.6258 143° Southeast 456 525 39,000  Level Salt Lake Center
Mon 10:03:36 PM 45.0342 -107.5211 142° Southeast 452 520 39,000  Level Salt Lake Center
Mon 10:04:38 PM 44.9200 -107.4003 143° Southeast 454 522 39,000  Level Salt Lake Center
Mon 10:05:39 PM 44.8225 -107.2953 143° Southeast 457 526 39,000  Level Salt Lake Center
Mon 10:06:41 PM 44.7261 -107.1933 143° Southeast 451 519 39,000  Level Salt Lake Center
Mon 10:07:42 PM 44.6128 -107.0719 143° Southeast 455 524 39,000  Level Salt Lake Center
Mon 10:08:44 PM 44.5161 -106.9714 143° Southeast 452 520 39,000  Level Salt Lake Center
Mon 10:09:45 PM 44.4186 -106.8714 144° Southeast 452 520 39,000  Level Salt Lake Center
Mon 10:10:46 PM 44.3064 -106.7531 143° Southeast 452 520 39,000  Level Salt Lake Center
Mon 10:11:48 PM 44.2089 -106.6539 144° Southeast 452 520 39,000  Level Salt Lake Center
Mon 10:12:49 PM 44.0967 -106.5378 143° Southeast 449 517 39,000  Level Salt Lake Center
Mon 10:13:51 PM 44.0003 -106.4383 143° Southeast 449 517 39,000  Level Salt Lake Center
Mon 10:14:52 PM 43.8944 -106.3328 144° Southeast 446 513 39,000  Level Salt Lake Center
Mon 10:15:10 PM 43.8942 -106.3325 144° Southeast 446 513 39,000  Level Denver Center
Mon 10:16:12 PM 43.7647 -106.2075 145° Southeast 444 511 39,000  Level Denver Center
Mon 10:17:14 PM 43.6528 -106.0964 144° Southeast 444 511 39,000  Level Denver Center
Mon 10:18:15 PM 43.5569 -106.0022 145° Southeast 443 510 39,000  Level Denver Center
Mon 10:19:17 PM 43.4589 -105.9086 145° Southeast 447 514 39,000  Level Denver Center
Mon 10:20:19 PM 43.3464 -105.7989 145° Southeast 446 513 39,000  Level Denver Center
Mon 10:21:21 PM 43.2492 -105.7058 145° Southeast 446 513 39,000  Level Denver Center
Mon 10:22:22 PM 43.1367 -105.5978 145° Southeast 443 510 39,000  Level Denver Center
Mon 10:23:24 PM 43.0397 -105.5053 145° Southeast 444 511 39,000 48 Level Denver Center
Mon 10:24:26 PM 42.9267 -105.3964 145° Southeast 445 512 39,100  Climbing Denver Center
Mon 10:25:27 PM 42.8297 -105.3050 145° Southeast 444 511 39,000 -49 Descending Denver Center
Mon 10:26:29 PM 42.7122 -105.2108 149° Southeast 441 507 39,000  Level Denver Center
Mon 10:27:31 PM 42.6014 -105.1881 171° South 424 488 39,000  Level Denver Center
Mon 10:28:33 PM 42.4917 -105.1519 166° South 424 488 39,000  Level Denver Center
Mon 10:29:46 PM 42.3628 -105.1111 167° South 428 493 39,000  Level Denver Center
Mon 10:30:49 PM 42.2156 -105.0661 167° South 427 491 39,000  Level Denver Center
Mon 10:31:50 PM 42.1061 -105.0311 167° South 425 489 39,000 49 Level Denver Center
Mon 10:32:52 PM 41.9789 -104.9931 167° South 422 486 39,100  Climbing Denver Center
Mon 10:33:54 PM 41.8681 -104.9594 167° South 425 489 39,000 -48 Descending Denver Center
Mon 10:34:56 PM 41.7397 -104.9214 168° South 424 488 39,000  Level Denver Center
Mon 10:35:57 PM 41.6308 -104.8869 167° South 422 486 39,000 49 Level Denver Center
Mon 10:36:59 PM 41.5039 -104.8483 167° South 419 482 39,100 919 Climbing Denver Center
Mon 10:38:01 PM 41.3986 -104.8156 167° South 409 471 40,900 919 Climbing Denver Center
Mon 10:39:03 PM 41.2994 -104.7858 167° South 387 445 41,000 49 Climbing Denver Center
Mon 10:40:04 PM 41.1794 -104.7511 168° South 393 452 41,000  Level Denver Center
Mon 10:41:06 PM 41.0739 -104.7217 168° South 403 464 41,000  Level Denver Center
Mon 10:42:08 PM 40.9483 -104.6842 167° South 411 473 41,000  Level Denver Center
Mon 10:43:10 PM 40.8333 -104.6489 167° South 417 480 41,000  Level Denver Center
Mon 10:44:11 PM 40.7183 -104.6164 168° South 418 481 41,000  Level Denver Center
Mon 10:45:13 PM 40.6053 -104.5839 168° South 411 473 41,000  Level Denver Center
Mon 10:46:15 PM 40.4942 -104.5392 163° South 412 474 41,000  Level Denver Center
Mon 10:47:17 PM 40.3969 -104.4431 143° Southeast 427 491 41,000  Level Denver Center
Mon 10:48:18 PM 40.2992 -104.3422 142° Southeast 438 504 41,000  Level Denver Center
Mon 10:49:20 PM 40.2014 -104.2439 142° Southeast 438 504 41,000  Level Denver Center
Mon 10:50:22 PM 40.1053 -104.1469 142° Southeast 432 497 41,000  Level Denver Center
Mon 10:51:23 PM 40.0061 -104.0467 142° Southeast 444 511 41,000  Level Denver Center
Mon 10:52:25 PM 39.8911 -103.9325 143° Southeast 440 506 41,000  Level Denver Center
Mon 10:53:27 PM 39.7908 -103.8325 143° Southeast 445 512 41,000  Level Denver Center
Mon 10:54:28 PM 39.7222 -103.7636 142° Southeast 457 526 41,000  Level Denver Center
Mon 10:55:30 PM 39.5869 -103.6314 143° Southeast 453 521 41,000  Level Denver Center
Mon 10:56:32 PM 39.4817 -103.5272 143° Southeast 467 537 41,000  Level Denver Center
Mon 10:57:33 PM 39.3778 -103.4256 143° Southeast 464 534 41,000  Level Denver Center
Mon 10:58:35 PM 39.2719 -103.3206 142° Southeast 471 542 41,000  Level Denver Center
Mon 10:59:37 PM 39.1675 -103.2194 143° Southeast 466 536 41,000  Level Denver Center
Mon 11:00:38 PM 39.0642 -103.1194 143° Southeast 460 529 41,000  Level Denver Center
Mon 11:01:40 PM 38.9594 -103.0192 143° Southeast 464 534 41,000  Level Denver Center
Mon 11:02:42 PM 38.8572 -102.9200 143° Southeast 459 528 41,000  Level Denver Center
Mon 11:03:43 PM 38.7536 -102.8197 143° Southeast 462 532 41,000  Level Denver Center
Mon 11:04:45 PM 38.6344 -102.7056 143° Southeast 464 534 41,000  Level Denver Center
Mon 11:05:46 PM 38.5361 -102.6114 143° Southeast 462 532 41,000  Level Denver Center
Mon 11:06:48 PM 38.4200 -102.5008 143° Southeast 465 535 41,000  Level Denver Center
Mon 11:07:50 PM 38.3186 -102.4061 144° Southeast 472 543 41,000  Level Denver Center
Mon 11:08:51 PM 38.2175 -102.3111 144° Southeast 471 542 41,000  Level Denver Center
Mon 11:10:05 PM 38.0983 -102.2003 144° Southeast 475 547 41,000  Level Denver Center
Mon 11:11:07 PM 37.9628 -102.0731 143° Southeast 476 548 41,000  Level Denver Center
Mon 11:12:08 PM 37.8614 -101.9789 144° Southeast 474 545 41,000  Level Denver Center
Mon 11:13:10 PM 37.7433 -101.8692 144° Southeast 473 544 41,000  Level Denver Center
Mon 11:14:11 PM 37.6428 -101.7758 144° Southeast 471 542 41,000  Level Denver Center
Mon 11:15:13 PM 37.5422 -101.6831 144° Southeast 471 542 41,000  Level Denver Center
Mon 11:16:15 PM 37.4250 -101.5767 144° Southeast 468 539 41,000  Level Denver Center
Mon 11:17:28 PM 37.3075 -101.4692 144° Southeast 468 539 41,000  Level Kansas City Center
Mon 11:18:30 PM 37.1903 -101.3625 144° Southeast 468 539 41,000  Level Kansas City Center
Mon 11:19:30 PM 37.0903 -101.2714 144° Southeast 468 539 41,000  Level Kansas City Center
Mon 11:20:31 PM 36.9722 -101.1644 144° Southeast 469 540 41,000  Level Kansas City Center
Mon 11:21:33 PM 36.8728 -101.0753 144° Southeast 465 535 41,000  Level Kansas City Center
Mon 11:22:34 PM 36.7750 -100.9881 144° Southeast 457 526 41,000  Level Kansas City Center
Mon 11:23:34 PM 36.6550 -100.8806 144° Southeast 471 542 41,000  Level Kansas City Center
Mon 11:24:34 PM 36.5547 -100.7906 144° Southeast 468 539 41,000  Level Kansas City Center
Mon 11:25:35 PM 36.4442 -100.6925 144° Southeast 467 537 41,000  Level Kansas City Center
Mon 11:26:36 PM 36.3372 -100.5989 145° Southeast 469 540 41,000  Level Kansas City Center
Mon 11:27:00 PM 36.2944 -100.5606 144° Southeast 471 542 41,000  Level Albuquerque Center
Mon 11:28:01 PM 36.1881 -100.4653 144° Southeast 472 543 41,000  Level Albuquerque Center
Mon 11:29:03 PM 36.0817 -100.3733 145° Southeast 469 540 41,000  Level Albuquerque Center
Mon 11:30:04 PM 35.9767 -100.2814 145° Southeast 464 534 41,000  Level Albuquerque Center
Mon 11:31:05 PM 35.8731 -100.1900 144° Southeast 460 529 41,000  Level Albuquerque Center
Mon 11:32:07 PM 35.7697 -100.1000 145° Southeast 457 526 41,000  Level Albuquerque Center
Mon 11:33:08 PM 35.6453 -99.9922 145° Southeast 456 525 41,000  Level Albuquerque Center
Mon 11:34:09 PM 35.5417 -99.9039 145° Southeast 456 525 41,000  Level Albuquerque Center
Mon 11:35:11 PM 35.4386 -99.8142 145° Southeast 455 524 41,000  Level Albuquerque Center
Mon 11:36:12 PM 35.3339 -99.7250 145° Southeast 458 527 41,000  Level Albuquerque Center
Mon 11:37:13 PM 35.2294 -99.6356 145° Southeast 458 527 41,000  Level Albuquerque Center
Mon 11:38:15 PM 35.1253 -99.5464 145° Southeast 458 527 41,000  Level Albuquerque Center
Mon 11:38:55 PM 35.0389 -99.4753 146° Southeast 459 528 41,000  Level Fort Worth Center
Mon 11:39:55 PM 34.9358 -99.3864 145° Southeast 459 528 41,000  Level Fort Worth Center
Mon 11:40:55 PM 34.8289 -99.2981 146° Southeast 459 528 41,000  Level Fort Worth Center
Mon 11:41:55 PM 34.7217 -99.2097 146° Southeast 459 528 41,000  Level Fort Worth Center
Mon 11:42:55 PM 34.6372 -99.1372 145° Southeast 459 528 41,000  Level Fort Worth Center
Mon 11:43:55 PM 34.5217 -99.0417 146° Southeast 459 528 41,000  Level Fort Worth Center
Mon 11:44:55 PM 34.4164 -98.9542 146° Southeast 459 528 41,000  Level Fort Worth Center
Mon 11:45:55 PM 34.3108 -98.8642 145° Southeast 459 528 41,000  Level Fort Worth Center
Mon 11:46:55 PM 34.2056 -98.7719 144° Southeast 465 535 41,000  Level Fort Worth Center
Mon 11:47:55 PM 34.0981 -98.6825 145° Southeast 465 535 41,000  Level Fort Worth Center
Mon 11:48:55 PM 33.9947 -98.5858 142° Southeast 471 542 41,000  Level Fort Worth Center
Mon 11:49:55 PM 33.8889 -98.4969 145° Southeast 471 542 41,000  Level Fort Worth Center
Mon 11:50:55 PM 33.7833 -98.4056 144° Southeast 471 542 41,000  Level Fort Worth Center
Mon 11:51:55 PM 33.6756 -98.3169 146° Southeast 471 542 41,000  Level Fort Worth Center
Mon 11:52:55 PM 33.5614 -98.2186 144° Southeast 471 542 41,000  Level Fort Worth Center
Mon 11:53:55 PM 33.4553 -98.1331 146° Southeast 478 550 41,000  Level Fort Worth Center
Mon 11:54:55 PM 33.3494 -98.0425 144° Southeast 468 539 41,000  Level Fort Worth Center
Mon 11:55:55 PM 33.2456 -97.9550 145° Southeast 468 539 41,000  Level Fort Worth Center
Mon 11:56:55 PM 33.1394 -97.8675 145° Southeast 468 539 41,000  Level Fort Worth Center
Mon 11:57:55 PM 33.0333 -97.7778 145° Southeast 468 539 41,000  Level Fort Worth Center
Mon 11:58:55 PM 32.9250 -97.6906 146° Southeast 468 539 41,000  Level Fort Worth Center
Mon 11:59:55 PM 32.8186 -97.6014 145° Southeast 468 539 41,000  Level Fort Worth Center
Tue 12:00:55 AM 32.7103 -97.5147 146° Southeast 468 539 41,000  Level Fort Worth Center
Tue 12:01:55 AM 32.6058 -97.4258 144° Southeast 468 539 41,000  Level Fort Worth Center
Tue 12:02:55 AM 32.4972 -97.3369 145° Southeast 468 539 41,000  Level Fort Worth Center
Tue 12:03:55 AM 32.3928 -97.2461 144° Southeast 468 539 41,000  Level Fort Worth Center
Tue 12:04:55 AM 32.2842 -97.1603 146° Southeast 473 544 41,000  Level Fort Worth Center
Tue 12:05:55 AM 32.1775 -97.0697 144° Southeast 472 543 41,000 -350 Level Fort Worth Center
Tue 12:06:55 AM 32.0664 -96.9819 146° Southeast 472 543 40,300 -750 Descending Fort Worth Center
Tue 12:07:55 AM 31.9703 -96.9064 146° Southeast 478 550 39,500 -902 Descending Fort Worth Center
Tue 12:09:28 AM 31.8092 -96.7742 145° Southeast 468 539 38,000 -1,020 Descending Houston Center
Tue 12:10:28 AM 31.7025 -96.6875 145° Southeast 463 533 36,900 -1,050 Descending Houston Center
Tue 12:11:28 AM 31.5967 -96.6025 146° Southeast 455 524 35,900 -992 Descending Houston Center
Tue 12:12:29 AM 31.4894 -96.5175 146° Southeast 455 524 34,900 -992 Descending Houston Center
Tue 12:13:29 AM 31.3842 -96.4331 146° Southeast 453 521 33,900 -1,050 Descending Houston Center
Tue 12:14:29 AM 31.2806 -96.3503 146° Southeast 444 511 32,800 -1,884 Descending Houston Center
Tue 12:15:30 AM 31.1728 -96.2886 154° Southeast 422 486 30,100 -2,777 Descending Houston Center
Tue 12:16:30 AM 31.0658 -96.2317 155° Southeast 417 480 27,200 -2,876 Descending Houston Center
Tue 12:17:31 AM 30.9553 -96.1753 156° South 426 490 24,300 -2,919 Descending Houston Center
Tue 12:18:21 AM 30.8575 -96.1247 156° South 443 510 21,800 -3,058 Descending Houston Center
Tue 12:19:15 AM 30.7500 -96.0689 156° South 448 516 19,000 -2,914 Descending Houston Center
Tue 12:19:31 AM 30.7269 -96.0567 156° South 442 509 18,400 -2,951 Descending Houston Center
Tue 12:20:16 AM 30.6494 -96.0197 158° South 391 450 16,000 -2,852 Descending Houston Center
Tue 12:20:32 AM 30.6297 -96.0083 154° Southeast 404 465 15,500 -2,951 Descending Houston Center
Tue 12:21:17 AM 30.5458 -95.9636 155° Southeast 372 428 13,000 -2,900 Descending Houston Center
Tue 12:21:32 AM 30.5342 -95.9586 160° South 380 437 12,600 -2,597 Descending Houston Center
Tue 12:22:24 AM 30.4472 -95.9144 156° South 349 402 10,100 -1,393 Descending Houston Center
Tue 12:23:24 AM 30.3592 -95.8692 156° South 339 390 10,000 -470 Descending Houston Center
Tue 12:24:19 AM 30.2933 -95.8356 156° South 266 306 9,200 -1,230 Descending Houston Center
Tue 12:25:26 AM 30.2208 -95.7981 156° South 261 300 7,500 -1,453 Descending Houston Center
Tue 12:26:27 AM 30.1572 -95.7669 157° South 244 281 6,100 -1,525 Descending Houston Center
Tue 12:27:28 AM 30.0981 -95.7375 157° South 229 264 4,400 -1,041 Descending Houston Center
Tue 12:28:28 AM 30.0386 -95.7058 155° Southeast 228 262 4,000 -198 Descending Houston Center
Tue 12:29:29 AM 29.9950 -95.6653 141° Southeast 197 227 4,000  Level Houston Center
Tue 12:30:30 AM 29.9933 -95.6003 92° East 203 234 4,000 -344 Level Houston Center
Tue 12:31:31 AM 29.9922 -95.5400 91° East 172 198 3,300 -843 Descending Houston Center
Tue 12:32:31 AM 29.9917 -95.4872 91° East 153 176 2,300 -843 Descending Houston Center
Tue 12:33:32 AM 29.9936 -95.4411 87° East 146 168 1,600 -667 Descending Houston Center
Tue 12:34:37 AM 29.9939 -95.4017 90° East 147 169 900 -571 Descending Houston Center
Tue 12:35:38 AM 29.9942 -95.3564 90° East 139 160 400 -492 Descending Houston Center
Tue 12:37:00 AM 29.9833 -95.3333 138° Southeast  Level FlightAware Approximate

Login

Don't have an account? Register now (free) for customized features, flight alerts, and more!